RJNA(METAR)
04/26 16:00
METAR RJNA 260700Z 32013KT 290V350 9999 FEW030 SCT050 23/12 Q1002 RMK
1CU030 3SC050 A2961=
戻る
トップページへ戻る
IMOC Co,.Ltd.